Time;durP1;ratioP1;P1;durP2;ratioP2;P2;SDS_P1;SDS_P2;PMS_P1;PMS_P2;Temp;Humidity;BMP_temperature;BMP_pressure;BME280_temperature;BME280_humidity;BME280_pressure;Samples;Min_cycle;Max_cycle;Signal;HPM_P1;HPM_P2
2021/12/13 00:01:05;;;;;;;9.10;8.10;;;21.70;44.50;;;;;;5039885;28;20035;-41
2021/12/13 00:03:44;;;;;;;9.50;7.63;;;21.70;44.40;;;;;;5038279;28;20056;-42
2021/12/13 00:06:15;;;;;;;9.50;7.60;;;21.70;44.50;;;;;;5052727;28;20025;-42
2021/12/13 00:08:48;;;;;;;8.75;7.50;;;21.70;44.50;;;;;;5054764;28;20405;-41
2021/12/13 00:11:20;;;;;;;8.63;7.32;;;21.70;44.50;;;;;;5056194;28;20360;-43
2021/12/13 00:14:19;;;;;;;8.48;7.00;;;21.60;44.40;;;;;;5053282;28;20017;-42
2021/12/13 00:16:56;;;;;;;7.50;6.68;;;21.70;44.50;;;;;;5049344;28;20176;-43
2021/12/13 00:19:31;;;;;;;9.13;7.15;;;21.60;44.50;;;;;;5054083;28;20024;-42
2021/12/13 00:22:02;;;;;;;8.27;6.40;;;21.60;44.80;;;;;;5044383;28;20436;-40
2021/12/13 00:24:35;;;;;;;7.68;6.40;;;21.70;44.60;;;;;;5050363;28;20039;-43
2021/12/13 00:27:11;;;;;;;8.57;6.18;;;21.70;44.60;;;;;;5037082;28;20026;-42
2021/12/13 00:29:59;;;;;;;8.23;6.22;;;21.60;44.60;;;;;;5037176;28;20026;-41
2021/12/13 00:32:39;;;;;;;6.40;5.50;;;21.70;44.60;;;;;;5039767;28;20041;-42
2021/12/13 00:35:12;;;;;;;6.15;5.43;;;21.60;44.60;;;;;;5036586;28;20021;-45
2021/12/13 00:37:41;;;;;;;7.90;6.15;;;21.60;44.60;;;;;;5048884;28;20045;-45
2021/12/13 00:40:46;;;;;;;7.65;6.53;;;21.60;44.60;;;;;;5056253;28;20021;-41
2021/12/13 00:43:21;;;;;;;6.87;5.20;;;21.60;44.50;;;;;;4988236;28;20092;-40
2021/12/13 00:46:14;;;;;;;5.68;4.82;;;21.60;44.60;;;;;;5055248;28;20582;-44
2021/12/13 00:48:44;;;;;;;5.40;4.57;;;21.60;44.50;;;;;;5032765;28;20076;-43
2021/12/13 00:51:28;;;;;;;5.25;4.40;;;21.50;44.50;;;;;;5036668;28;20036;-42
2021/12/13 00:54:09;;;;;;;5.75;4.57;;;21.60;44.50;;;;;;5055853;28;20053;-43
2021/12/13 00:56:47;;;;;;;4.47;4.03;;;21.60;44.50;;;;;;5045221;28;20432;-43
2021/12/13 00:59:32;;;;;;;5.47;4.25;;;21.60;44.50;;;;;;5036040;28;20445;-42
2021/12/13 01:02:10;;;;;;;5.43;4.07;;;21.60;44.50;;;;;;5041040;28;20037;-41
2021/12/13 01:05:03;;;;;;;4.57;3.83;;;21.50;44.50;;;;;;5037037;28;20045;-45
2021/12/13 01:08:00;;;;;;;5.70;4.18;;;21.50;44.40;;;;;;5036740;28;20037;-43
2021/12/13 01:10:52;;;;;;;5.05;4.30;;;21.50;44.40;;;;;;5047617;28;20030;-43
2021/12/13 01:13:37;;;;;;;4.47;4.07;;;21.50;44.40;;;;;;5036069;28;20029;-45
2021/12/13 01:16:33;;;;;;;5.10;3.78;;;21.50;44.50;;;;;;5018165;28;21862;-43
2021/12/13 01:19:29;;;;;;;4.57;4.10;;;21.50;44.40;;;;;;5041883;28;20436;-43
2021/12/13 01:22:46;;;;;;;4.72;3.70;;;21.50;44.40;;;;;;5057090;28;20029;-43
2021/12/13 01:25:25;;;;;;;4.75;3.47;;;21.40;44.40;;;;;;5068534;28;20315;-43
2021/12/13 01:28:02;;;;;;;5.05;3.67;;;21.40;44.40;;;;;;5056382;28;20043;-45
2021/12/13 01:30:33;;;;;;;4.15;3.53;;;21.50;44.40;;;;;;5054356;28;20048;-46
2021/12/13 01:33:02;;;;;;;4.97;3.55;;;21.40;44.40;;;;;;5054763;28;20432;-43
2021/12/13 01:35:30;;;;;;;4.22;3.42;;;21.40;44.40;;;;;;5054558;28;20036;-43
2021/12/13 01:38:03;;;;;;;4.88;3.55;;;21.40;44.40;;;;;;5055508;28;20024;-42
2021/12/13 01:40:32;;;;;;;5.15;3.38;;;21.40;44.30;;;;;;5054454;28;20032;-42
2021/12/13 01:43:15;;;;;;;4.47;3.40;;;21.40;44.30;;;;;;5055002;28;20060;-43
2021/12/13 01:45:45;;;;;;;5.03;3.47;;;21.40;44.30;;;;;;5038302;28;20335;-42
2021/12/13 01:48:25;;;;;;;5.93;3.90;;;21.40;44.30;;;;;;5035887;28;20025;-41
2021/12/13 01:51:04;;;;;;;4.93;3.38;;;21.40;44.30;;;;;;5039527;28;20037;-44
2021/12/13 01:53:54;;;;;;;4.75;3.38;;;21.40;44.30;;;;;;5055468;28;20060;-44
2021/12/13 02:02:21;;;;;;;4.22;3.33;;;21.40;44.40;;;;;;5026009;28;20437;-41
2021/12/13 02:05:09;;;;;;;4.20;3.30;;;21.40;44.40;;;;;;5035462;28;20096;-42
2021/12/13 02:07:44;;;;;;;3.58;2.90;;;21.40;44.40;;;;;;5034762;28;20084;-42
2021/12/13 02:10:19;;;;;;;4.40;3.35;;;21.40;44.40;;;;;;5051666;28;20332;-43
2021/12/13 02:12:47;;;;;;;3.33;3.00;;;21.40;44.40;;;;;;5046278;28;20029;-43
2021/12/13 02:17:59;;;;;;;4.97;3.55;;;21.40;44.50;;;;;;5034947;28;20021;-43
2021/12/13 02:20:31;;;;;;;3.85;3.05;;;21.30;44.40;;;;;;5034914;28;20025;-42
2021/12/13 02:22:57;;;;;;;3.88;3.10;;;21.30;44.50;;;;;;5051037;28;20125;-44
2021/12/13 02:25:31;;;;;;;3.47;2.65;;;21.30;44.40;;;;;;5045059;28;20021;-41
2021/12/13 02:28:02;;;;;;;3.05;2.50;;;21.30;44.40;;;;;;5035167;28;20079;-41
2021/12/13 02:30:48;;;;;;;3.67;2.90;;;21.30;44.40;;;;;;5034937;28;20088;-43
2021/12/13 02:33:21;;;;;;;4.13;2.97;;;21.30;44.40;;;;;;5035163;28;20036;-45
2021/12/13 02:35:54;;;;;;;4.38;3.00;;;21.30;44.40;;;;;;5050175;28;20321;-42
2021/12/13 02:38:22;;;;;;;3.57;3.03;;;21.30;44.40;;;;;;5053328;28;20029;-42
2021/12/13 02:40:50;;;;;;;3.05;2.72;;;21.30;44.50;;;;;;5054752;28;20040;-42
2021/12/13 02:43:18;;;;;;;3.40;2.97;;;21.30;44.40;;;;;;5042026;28;20060;-43
2021/12/13 02:45:48;;;;;;;3.92;3.40;;;21.30;44.50;;;;;;5041107;28;20432;-41
2021/12/13 02:48:38;;;;;;;3.92;3.50;;;21.30;44.50;;;;;;5053820;28;20482;-42
2021/12/13 02:51:52;;;;;;;3.90;3.50;;;21.30;44.50;;;;;;5034872;28;20124;-44
2021/12/13 02:54:33;;;;;;;3.97;3.28;;;21.30;44.50;;;;;;5030780;28;20065;-48
2021/12/13 02:57:06;;;;;;;3.95;3.30;;;21.20;44.50;;;;;;5034934;28;20436;-42
2021/12/13 02:59:34;;;;;;;4.07;3.25;;;21.20;44.50;;;;;;5044342;28;20139;-44
2021/12/13 03:02:11;;;;;;;4.03;3.05;;;21.20;44.50;;;;;;5048686;28;20102;-43
2021/12/13 03:04:37;;;;;;;3.60;3.03;;;21.30;44.60;;;;;;5036661;28;20351;-41
2021/12/13 03:07:18;;;;;;;4.68;3.17;;;21.20;44.50;;;;;;5054108;28;20104;-44
2021/12/13 03:09:46;;;;;;;4.13;3.10;;;21.30;44.50;;;;;;5049311;28;20033;-42
2021/12/13 03:12:14;;;;;;;4.07;2.97;;;21.20;44.50;;;;;;5043883;28;20044;-42
2021/12/13 03:15:02;;;;;;;4.88;3.00;;;21.20;44.50;;;;;;5056704;28;20096;-41
2021/12/13 03:17:30;;;;;;;3.70;2.78;;;21.20;44.50;;;;;;5054911;28;20455;-42
2021/12/13 03:20:22;;;;;;;3.53;2.88;;;21.20;45.20;;;;;;5038841;28;20021;-43
2021/12/13 03:23:26;;;;;;;3.90;2.97;;;21.20;44.60;;;;;;5050566;28;20333;-42
2021/12/13 03:26:00;;;;;;;3.70;3.13;;;21.20;44.50;;;;;;5046371;28;20340;-43
2021/12/13 03:29:02;;;;;;;3.97;3.20;;;21.20;44.60;;;;;;5039310;28;20029;-51
2021/12/13 03:31:35;;;;;;;2.88;2.58;;;21.20;44.50;;;;;;5039235;28;20305;-47
2021/12/13 03:34:09;;;;;;;3.33;2.78;;;21.20;44.60;;;;;;5038073;28;20333;-47
2021/12/13 03:36:46;;;;;;;3.10;2.58;;;21.20;44.60;;;;;;5053889;28;20025;-44
2021/12/13 03:39:16;;;;;;;2.67;2.42;;;21.20;44.50;;;;;;5041896;28;20052;-42
2021/12/13 03:41:48;;;;;;;3.17;2.60;;;21.10;44.50;;;;;;5055863;28;20029;-44
2021/12/13 03:44:19;;;;;;;2.47;2.28;;;21.20;44.50;;;;;;5057155;28;20174;-47
2021/12/13 03:46:47;;;;;;;3.17;2.65;;;21.10;44.50;;;;;;5060715;28;20117;-43
2021/12/13 03:49:14;;;;;;;2.78;2.20;;;21.20;44.50;;;;;;5037567;28;20436;-42
2021/12/13 03:51:42;;;;;;;3.40;2.60;;;21.10;44.40;;;;;;5043932;28;20080;-43
2021/12/13 03:54:12;;;;;;;3.13;2.47;;;21.10;44.40;;;;;;5052403;28;20108;-43
2021/12/13 03:56:42;;;;;;;2.55;2.35;;;21.10;44.50;;;;;;5039020;28;20110;-45
2021/12/13 03:59:13;;;;;;;4.32;2.35;;;21.10;44.40;;;;;;5037365;28;20041;-46
2021/12/13 04:01:54;;;;;;;2.38;2.03;;;21.10;44.40;;;;;;5037556;28;20060;-43
2021/12/13 04:04:28;;;;;;;2.63;2.22;;;21.10;44.40;;;;;;5019817;28;20052;-44
2021/12/13 04:06:56;;;;;;;;;;;21.10;44.40;;;;;;5039085;28;20021;-44
2021/12/13 04:09:24;;;;;;;2.45;2.10;;;21.00;44.40;;;;;;5043147;28;19908;-44
2021/12/13 04:11:58;;;;;;;2.50;1.90;;;21.00;44.40;;;;;;5038226;28;20436;-41
2021/12/13 04:14:38;;;;;;;2.30;1.90;;;21.00;44.40;;;;;;5042767;28;20032;-44
2021/12/13 04:17:21;;;;;;;2.08;1.73;;;21.10;44.40;;;;;;5051147;28;20021;-43
2021/12/13 04:19:56;;;;;;;2.30;1.85;;;21.10;44.30;;;;;;5054042;28;20028;-43
2021/12/13 04:22:36;;;;;;;2.67;2.08;;;21.00;44.30;;;;;;5044368;28;20522;-46
2021/12/13 04:25:11;;;;;;;2.20;1.95;;;21.00;44.30;;;;;;5037079;28;20055;-42
2021/12/13 04:27:41;;;;;;;2.40;1.90;;;21.00;44.30;;;;;;5038406;28;20037;-44
2021/12/13 04:30:24;;;;;;;2.70;2.17;;;21.00;44.30;;;;;;5019852;28;20326;-43
2021/12/13 04:32:58;;;;;;;2.80;2.03;;;21.00;44.30;;;;;;5053172;28;20049;-42
2021/12/13 04:35:26;;;;;;;2.20;1.92;;;21.00;44.30;;;;;;5039199;28;20037;-41
2021/12/13 04:37:56;;;;;;;2.45;2.10;;;21.00;44.30;;;;;;5055019;28;20101;-42
2021/12/13 04:40:32;;;;;;;3.25;2.13;;;21.00;44.30;;;;;;5051740;28;20039;-43
2021/12/13 04:43:02;;;;;;;3.03;2.25;;;21.00;44.20;;;;;;5039057;28;20033;-41
2021/12/13 04:45:30;;;;;;;2.50;2.10;;;21.00;44.20;;;;;;5035993;28;20369;-43
2021/12/13 04:48:12;;;;;;;2.50;1.88;;;21.00;44.20;;;;;;5074148;28;20377;-44
2021/12/13 04:50:52;;;;;;;1.90;1.70;;;21.00;44.20;;;;;;5038832;28;20029;-41
2021/12/13 04:53:27;;;;;;;3.03;2.50;;;21.00;44.20;;;;;;5036767;28;20018;-44
2021/12/13 04:55:54;;;;;;;2.85;2.22;;;21.00;44.20;;;;;;5055706;28;20029;-42
2021/12/13 04:58:20;;;;;;;2.70;2.28;;;21.00;44.80;;;;;;5044418;28;20439;-43
2021/12/13 05:00:51;;;;;;;2.58;1.98;;;21.00;44.80;;;;;;5048430;28;20029;-43
2021/12/13 05:03:21;;;;;;;3.10;1.95;;;21.00;44.20;;;;;;5051437;28;20033;-43
2021/12/13 05:05:48;;;;;;;2.63;2.03;;;21.00;44.20;;;;;;5036295;28;20083;-44
2021/12/13 05:08:17;;;;;;;2.92;2.35;;;21.00;44.20;;;;;;5036922;28;20485;-41
2021/12/13 05:10:47;;;;;;;2.80;2.10;;;21.00;44.20;;;;;;5035987;28;20063;-45
2021/12/13 05:13:16;;;;;;;2.97;2.22;;;21.00;44.30;;;;;;5040190;28;20026;-41
2021/12/13 05:15:55;;;;;;;2.60;1.90;;;21.00;44.30;;;;;;5037975;28;20083;-41
2021/12/13 05:18:28;;;;;;;2.63;2.03;;;21.00;44.20;;;;;;5050505;28;20036;-41
2021/12/13 05:21:36;;;;;;;2.80;2.00;;;21.00;44.20;;;;;;5054500;28;20057;-43
2021/12/13 05:24:09;;;;;;;3.63;2.22;;;21.00;44.80;;;;;;4974494;28;20058;-45
2021/12/13 05:26:53;;;;;;;2.30;1.98;;;20.90;44.20;;;;;;5029780;28;20059;-41
2021/12/13 05:29:33;;;;;;;2.63;2.38;;;21.00;44.20;;;;;;5054668;28;20033;-41
2021/12/13 05:32:14;;;;;;;3.00;2.45;;;21.00;44.20;;;;;;5017837;28;20394;-42
2021/12/13 05:35:08;;;;;;;3.78;2.58;;;21.00;44.20;;;;;;5037367;28;20091;-43
2021/12/13 05:37:53;;;;;;;3.03;2.40;;;20.90;44.10;;;;;;5056115;28;20425;-43
2021/12/13 05:40:39;;;;;;;2.83;2.53;;;20.90;44.20;;;;;;5049035;28;20053;-42
2021/12/13 05:43:23;;;;;;;3.80;2.50;;;21.00;44.20;;;;;;5053789;28;20363;-42
2021/12/13 05:46:06;;;;;;;4.83;2.70;;;20.90;44.10;;;;;;5035967;28;20029;-43
2021/12/13 05:48:35;;;;;;;3.28;2.45;;;20.90;44.10;;;;;;5052768;28;20298;-44
2021/12/13 05:51:08;;;;;;;4.00;2.53;;;20.90;44.10;;;;;;5053820;28;20029;-44
2021/12/13 05:53:42;;;;;;;2.50;2.22;;;20.90;44.10;;;;;;5065351;28;20032;-43
2021/12/13 05:56:11;;;;;;;3.47;2.50;;;20.90;44.10;;;;;;5071589;28;20021;-43
2021/12/13 05:58:45;;;;;;;3.15;2.72;;;20.90;44.10;;;;;;5047327;28;20206;-43
2021/12/13 06:01:40;;;;;;;3.45;2.70;;;20.90;44.10;;;;;;5036081;28;20025;-45
2021/12/13 06:04:06;;;;;;;2.78;2.42;;;20.90;44.00;;;;;;5030001;28;20538;-41
2021/12/13 06:06:43;;;;;;;2.58;2.30;;;20.90;44.10;;;;;;5046109;28;20120;-43
2021/12/13 06:09:09;;;;;;;3.40;2.88;;;20.90;44.10;;;;;;5060196;28;20457;-41
2021/12/13 06:11:38;;;;;;;3.30;2.67;;;20.80;44.00;;;;;;5047926;28;20040;-44
2021/12/13 06:14:15;;;;;;;3.13;2.47;;;20.90;44.00;;;;;;5035307;28;20030;-41
2021/12/13 06:16:53;;;;;;;3.03;2.50;;;20.90;44.00;;;;;;5048355;28;20051;-42
2021/12/13 06:19:31;;;;;;;2.78;2.22;;;20.80;43.90;;;;;;5043529;28;20024;-42
2021/12/13 06:22:17;;;;;;;3.38;2.70;;;20.90;44.00;;;;;;5040708;28;20021;-42
2021/12/13 06:24:51;;;;;;;3.22;2.42;;;20.90;44.00;;;;;;5035074;28;20114;-41
2021/12/13 06:27:24;;;;;;;4.38;3.08;;;20.80;43.90;;;;;;5039674;28;20550;-43
2021/12/13 06:30:06;;;;;;;2.40;2.20;;;20.80;43.90;;;;;;5035525;28;20048;-44
2021/12/13 06:32:39;;;;;;;3.13;2.30;;;20.80;43.90;;;;;;5034624;28;20491;-43
2021/12/13 06:35:30;;;;;;;2.77;2.50;;;20.80;43.90;;;;;;5035358;28;20022;-44
2021/12/13 06:37:59;;;;;;;3.08;2.30;;;20.80;43.90;;;;;;5049124;28;20021;-44
2021/12/13 06:40:29;;;;;;;3.97;2.53;;;20.80;43.90;;;;;;5037576;28;20398;-42
2021/12/13 06:42:58;;;;;;;2.88;2.45;;;20.80;43.90;;;;;;5054446;28;20036;-42
2021/12/13 06:45:32;;;;;;;4.03;2.45;;;20.80;43.90;;;;;;5054657;28;20029;-43
2021/12/13 06:48:02;;;;;;;2.42;2.10;;;20.80;43.90;;;;;;5058751;28;20032;-43
2021/12/13 06:50:35;;;;;;;2.95;2.35;;;20.80;43.90;;;;;;5051573;28;20340;-42
2021/12/13 06:53:14;;;;;;;2.92;2.60;;;20.80;43.90;;;;;;5058172;28;20024;-41
2021/12/13 06:55:40;;;;;;;2.83;2.13;;;20.80;43.80;;;;;;5058553;28;20013;-41
2021/12/13 06:58:22;;;;;;;2.85;2.50;;;20.70;43.80;;;;;;5038321;28;20052;-44
2021/12/13 07:00:51;;;;;;;3.05;2.35;;;20.70;43.80;;;;;;5049244;28;20420;-43
2021/12/13 07:03:24;;;;;;;2.45;2.22;;;20.80;43.90;;;;;;5039044;28;20446;-45
2021/12/13 07:06:00;;;;;;;2.55;1.95;;;20.80;43.80;;;;;;5045519;28;20447;-44
2021/12/13 07:08:34;;;;;;;2.50;2.08;;;20.80;43.80;;;;;;5057696;28;20176;-42
2021/12/13 07:11:08;;;;;;;2.50;1.90;;;20.80;43.80;;;;;;5048415;28;20026;-41
2021/12/13 07:14:00;;;;;;;2.20;1.95;;;20.70;43.80;;;;;;5064043;28;20109;-45
2021/12/13 07:16:34;;;;;;;2.78;2.20;;;20.80;43.80;;;;;;5044492;28;20037;-41
2021/12/13 07:19:22;;;;;;;3.60;2.28;;;20.70;43.80;;;;;;5058066;28;20086;-46
2021/12/13 07:21:54;;;;;;;2.67;2.17;;;20.70;43.80;;;;;;5043626;28;20068;-42
2021/12/13 07:24:44;;;;;;;2.55;2.33;;;20.70;43.80;;;;;;5039441;28;20061;-48
2021/12/13 07:27:15;;;;;;;2.92;2.22;;;20.70;43.80;;;;;;5056665;28;20033;-46
2021/12/13 07:29:49;;;;;;;3.00;2.03;;;20.70;43.80;;;;;;5057707;28;20025;-45
2021/12/13 07:32:25;;;;;;;2.70;2.38;;;20.70;43.80;;;;;;5058335;28;20150;-45
2021/12/13 07:35:09;;;;;;;2.97;2.45;;;20.70;43.80;;;;;;5058852;28;20029;-44
2021/12/13 07:37:54;;;;;;;2.85;2.35;;;20.70;43.80;;;;;;5042052;28;20074;-42
2021/12/13 07:40:32;;;;;;;2.95;2.33;;;20.70;44.40;;;;;;5040404;28;20046;-45
2021/12/13 07:43:09;;;;;;;2.67;2.20;;;20.70;43.80;;;;;;5040505;28;20040;-42
2021/12/13 07:45:49;;;;;;;2.35;2.13;;;20.70;43.80;;;;;;5038016;28;20025;-43
2021/12/13 07:48:22;;;;;;;2.50;2.30;;;20.70;43.80;;;;;;5046643;28;20053;-44
2021/12/13 07:51:04;;;;;;;3.00;2.30;;;20.70;43.80;;;;;;5052824;28;20490;-44
2021/12/13 07:54:01;;;;;;;3.42;2.58;;;20.70;43.90;;;;;;5055506;28;20029;-43
2021/12/13 07:56:39;;;;;;;3.13;2.58;;;20.70;43.90;;;;;;5033765;28;20054;-44
2021/12/13 07:59:32;;;;;;;2.92;2.28;;;20.70;44.00;;;;;;5043676;28;20083;-44
2021/12/13 08:02:08;;;;;;;2.40;2.00;;;20.70;43.90;;;;;;5039430;28;20309;-44
2021/12/13 08:04:39;;;;;;;2.72;2.25;;;20.70;43.80;;;;;;5043735;28;20336;-42
2021/12/13 08:07:39;;;;;;;2.22;1.60;;;20.80;43.60;;;;;;5053246;28;20029;-44
2021/12/13 08:10:13;;;;;;;1.90;1.50;;;21.00;43.50;;;;;;5042292;28;20039;-44
2021/12/13 08:12:46;;;;;;;2.22;1.75;;;21.20;43.30;;;;;;5043684;28;20029;-42
2021/12/13 08:15:23;;;;;;;4.15;1.60;;;21.30;43.10;;;;;;5055627;28;20064;-42
2021/12/13 08:17:57;;;;;;;2.20;1.60;;;21.40;42.90;;;;;;5043870;28;20036;-44
2021/12/13 08:20:30;;;;;;;1.80;1.50;;;21.50;42.80;;;;;;5053381;28;20021;-43
2021/12/13 08:22:59;;;;;;;2.17;1.60;;;21.60;42.70;;;;;;5043887;28;20049;-41
2021/12/13 08:25:29;;;;;;;1.52;1.42;;;21.70;42.50;;;;;;5050035;28;20031;-43
2021/12/13 08:28:06;;;;;;;1.50;1.20;;;21.80;42.40;;;;;;5044940;28;20025;-43
2021/12/13 08:30:35;;;;;;;1.27;1.17;;;21.90;42.30;;;;;;5057062;28;20037;-41
2021/12/13 08:33:12;;;;;;;1.67;1.35;;;22.00;42.20;;;;;;5055604;28;20017;-41
2021/12/13 08:36:07;;;;;;;2.28;1.23;;;22.00;42.30;;;;;;5047242;28;20512;-42
2021/12/13 08:38:45;;;;;;;3.15;1.50;;;22.10;42.00;;;;;;5055802;28;20025;-43
2021/12/13 08:41:20;;;;;;;2.95;1.70;;;22.20;42.00;;;;;;5056350;28;20025;-46
2021/12/13 08:43:48;;;;;;;1.58;1.38;;;22.30;41.90;;;;;;5042505;28;20030;-42
2021/12/13 08:46:42;;;;;;;1.75;1.30;;;22.30;41.80;;;;;;5037480;28;20030;-44
2021/12/13 08:49:15;;;;;;;2.00;1.60;;;22.40;41.70;;;;;;5052398;28;20053;-46
2021/12/13 08:52:06;;;;;;;2.33;1.35;;;22.40;41.60;;;;;;5044010;28;20060;-42
2021/12/13 08:54:37;;;;;;;1.23;1.13;;;22.50;41.60;;;;;;5056016;28;20056;-45
2021/12/13 08:57:08;;;;;;;2.28;1.33;;;22.60;41.50;;;;;;5046008;28;20036;-46
2021/12/13 08:59:34;;;;;;;1.80;1.30;;;22.60;41.40;;;;;;5044552;28;20052;-44
2021/12/13 09:02:10;;;;;;;1.75;1.40;;;22.60;41.30;;;;;;5056207;28;20428;-45
2021/12/13 09:04:41;;;;;;;2.30;1.70;;;22.70;41.20;;;;;;5062065;28;20046;-44
2021/12/13 09:07:11;;;;;;;1.30;1.10;;;22.70;41.20;;;;;;5035876;28;20052;-43
2021/12/13 09:09:46;;;;;;;1.85;1.35;;;22.70;41.20;;;;;;5043896;28;20112;-48
2021/12/13 09:12:15;;;;;;;3.00;1.67;;;22.80;41.10;;;;;;5056413;28;20385;-46
2021/12/13 09:14:50;;;;;;;2.38;1.40;;;22.80;41.10;;;;;;5053669;28;20056;-48
2021/12/13 09:17:37;;;;;;;1.45;1.30;;;22.80;41.00;;;;;;5055740;28;20025;-45
2021/12/13 09:20:17;;;;;;;1.60;1.17;;;22.90;41.00;;;;;;5053675;28;20080;-44
2021/12/13 09:22:48;;;;;;;1.70;1.08;;;23.00;40.90;;;;;;5055094;28;20037;-45
2021/12/13 09:25:18;;;;;;;1.30;1.20;;;23.00;40.80;;;;;;5051487;28;20025;-46
2021/12/13 09:28:01;;;;;;;1.20;1.10;;;23.00;40.70;;;;;;5053674;28;20363;-46
2021/12/13 09:30:39;;;;;;;1.75;1.38;;;23.10;40.70;;;;;;5042266;28;20132;-43
2021/12/13 09:33:27;;;;;;;1.52;1.35;;;23.10;40.70;;;;;;5052309;28;20048;-49
2021/12/13 09:36:11;;;;;;;1.55;1.15;;;23.10;40.60;;;;;;5049931;28;20021;-49
2021/12/13 09:38:46;;;;;;;1.83;1.30;;;23.20;40.50;;;;;;5042446;28;20113;-49
2021/12/13 09:41:52;;;;;;;1.60;1.20;;;23.10;40.40;;;;;;5043054;28;20033;-49
2021/12/13 09:44:41;;;;;;;1.80;1.10;;;23.20;40.50;;;;;;5040096;28;20032;-44
2021/12/13 09:47:16;;;;;;;1.42;1.23;;;23.10;40.50;;;;;;5046266;28;20104;-46
2021/12/13 09:49:53;;;;;;;2.40;1.33;;;23.10;40.60;;;;;;5046158;28;20017;-50
2021/12/13 09:52:38;;;;;;;1.52;1.33;;;23.10;40.60;;;;;;5049185;28;20025;-45
2021/12/13 09:55:14;;;;;;;1.83;1.35;;;23.10;40.60;;;;;;5043003;28;20032;-41
2021/12/13 09:58:04;;;;;;;1.92;1.40;;;23.10;40.80;;;;;;5050430;28;20033;-43
2021/12/13 10:00:35;;;;;;;1.45;1.20;;;23.10;40.90;;;;;;5037501;28;20037;-48
2021/12/13 10:03:17;;;;;;;1.50;1.08;;;23.10;40.70;;;;;;5038815;28;20107;-47
2021/12/13 10:05:48;;;;;;;2.33;1.20;;;23.10;40.60;;;;;;5039022;28;20028;-53
2021/12/13 10:08:20;;;;;;;1.80;1.30;;;23.00;40.60;;;;;;5040176;28;20029;-52
2021/12/13 10:10:55;;;;;;;1.60;1.50;;;23.00;40.50;;;;;;5055401;28;20051;-52
2021/12/13 10:13:37;;;;;;;2.05;1.40;;;23.00;40.50;;;;;;5037501;28;20025;-52
2021/12/13 10:16:15;;;;;;;1.67;1.20;;;22.90;40.50;;;;;;5035281;28;20108;-46
2021/12/13 10:18:44;;;;;;;1.60;1.40;;;22.90;40.50;;;;;;5035692;28;20030;-48
2021/12/13 10:21:22;;;;;;;1.80;1.35;;;22.80;40.50;;;;;;5035287;28;20033;-52
2021/12/13 10:23:58;;;;;;;1.52;1.30;;;22.80;40.50;;;;;;5038134;28;20037;-48
2021/12/13 10:26:32;;;;;;;1.20;1.10;;;22.70;40.50;;;;;;5034552;28;20079;-46
2021/12/13 10:29:00;;;;;;;;;;;22.70;40.60;;;;;;5037971;28;20036;-46
2021/12/13 10:31:32;;;;;;;1.10;0.98;;;22.60;40.70;;;;;;5034980;28;19905;-47
2021/12/13 10:34:01;;;;;;;1.42;1.13;;;22.60;40.70;;;;;;5051485;28;20041;-49
2021/12/13 10:36:28;;;;;;;1.23;1.00;;;22.50;40.60;;;;;;5034886;28;20340;-47
2021/12/13 10:38:59;;;;;;;1.80;1.30;;;22.50;40.60;;;;;;5053646;28;20321;-45
2021/12/13 10:41:31;;;;;;;1.58;1.20;;;22.50;40.60;;;;;;5054595;28;20020;-47
2021/12/13 10:44:00;;;;;;;2.42;1.23;;;22.50;40.70;;;;;;5036467;28;20351;-47
2021/12/13 10:46:35;;;;;;;3.47;1.05;;;22.50;40.70;;;;;;5035178;28;20025;-51
2021/12/13 10:49:06;;;;;;;0.95;0.82;;;22.50;40.60;;;;;;5034718;28;20317;-49
2021/12/13 10:51:39;;;;;;;2.00;1.27;;;22.40;40.60;;;;;;5035052;28;20041;-50
2021/12/13 10:54:12;;;;;;;1.27;1.00;;;22.40;40.60;;;;;;5034850;28;20021;-47
2021/12/13 10:56:42;;;;;;;1.10;1.00;;;22.40;40.60;;;;;;5034493;28;20076;-43
2021/12/13 10:59:16;;;;;;;1.10;1.00;;;22.40;40.60;;;;;;5034417;28;20048;-49
2021/12/13 11:01:47;;;;;;;1.45;1.20;;;22.40;40.60;;;;;;5040072;28;20037;-42
2021/12/13 11:04:17;;;;;;;1.17;1.08;;;22.40;40.60;;;;;;5034250;28;20171;-47
2021/12/13 11:06:44;;;;;;;1.10;0.90;;;22.40;40.60;;;;;;5034515;28;20443;-43
2021/12/13 11:09:16;;;;;;;1.20;0.95;;;22.30;40.60;;;;;;5034903;28;20033;-43
2021/12/13 11:11:49;;;;;;;1.35;1.02;;;22.30;40.60;;;;;;5035301;28;20037;-44
2021/12/13 11:14:20;;;;;;;1.45;0.90;;;22.30;40.50;;;;;;5034293;28;20061;-44
2021/12/13 11:16:56;;;;;;;1.42;0.98;;;22.30;40.50;;;;;;5043389;28;20025;-44
2021/12/13 11:19:26;;;;;;;2.17;0.85;;;22.30;40.50;;;;;;5038015;28;20037;-43
2021/12/13 11:22:01;;;;;;;1.00;0.90;;;22.30;40.60;;;;;;5044285;28;20029;-47
2021/12/13 11:24:28;;;;;;;1.13;0.90;;;22.20;40.50;;;;;;5034176;28;20347;-46
2021/12/13 11:26:58;;;;;;;1.33;0.95;;;22.20;40.60;;;;;;5044667;28;20025;-46
2021/12/13 11:29:24;;;;;;;1.00;0.90;;;22.20;40.60;;;;;;5038924;28;20033;-43
2021/12/13 11:31:53;;;;;;;1.50;0.65;;;22.20;40.60;;;;;;5044571;28;20444;-45
2021/12/13 11:34:42;;;;;;;1.20;0.95;;;22.20;40.60;;;;;;5036945;28;20388;-48
2021/12/13 11:37:44;;;;;;;1.00;0.85;;;22.20;40.60;;;;;;5038080;28;20091;-48
2021/12/13 11:40:47;;;;;;;0.73;0.60;;;22.20;40.60;;;;;;5038016;28;20026;-46
2021/12/13 11:43:52;;;;;;;1.25;0.93;;;22.20;40.60;;;;;;5037734;28;20101;-46
2021/12/13 11:47:05;;;;;;;1.38;0.95;;;22.20;40.60;;;;;;5040418;28;20050;-45
2021/12/13 11:49:43;;;;;;;2.00;0.85;;;22.10;40.70;;;;;;4977334;28;20365;-47
2021/12/13 11:52:15;;;;;;;1.88;0.90;;;22.10;40.80;;;;;;5047108;28;20025;-42
2021/12/13 11:55:08;;;;;;;1.33;0.80;;;22.20;40.90;;;;;;5038233;28;20083;-45
2021/12/13 11:58:08;;;;;;;1.25;0.75;;;22.10;40.80;;;;;;5037352;28;20080;-46
2021/12/13 12:00:55;;;;;;;1.20;0.93;;;22.10;40.90;;;;;;5037684;28;20042;-45
2021/12/13 12:03:53;;;;;;;1.10;1.00;;;22.20;41.00;;;;;;5045075;28;20040;-44
2021/12/13 12:06:40;;;;;;;1.08;0.93;;;22.10;40.90;;;;;;5043590;28;20036;-46
2021/12/13 12:09:31;;;;;;;1.00;0.90;;;22.10;41.00;;;;;;5042518;28;20108;-47
2021/12/13 12:12:14;;;;;;;1.15;0.95;;;22.10;41.00;;;;;;5046872;28;20357;-45
2021/12/13 12:14:40;;;;;;;0.90;0.80;;;22.10;41.10;;;;;;5038131;28;20514;-45
2021/12/13 12:17:07;;;;;;;1.27;0.82;;;22.10;41.10;;;;;;5040127;28;20056;-42
2021/12/13 12:19:40;;;;;;;1.48;0.98;;;22.10;41.10;;;;;;5037453;28;20040;-42
2021/12/13 12:22:17;;;;;;;1.40;0.80;;;22.10;41.10;;;;;;5022559;28;20163;-48
2021/12/13 12:24:56;;;;;;;1.05;0.80;;;22.10;41.10;;;;;;5049745;28;20436;-49
2021/12/13 12:27:33;;;;;;;1.25;0.80;;;22.10;41.10;;;;;;5040960;28;20040;-45
2021/12/13 12:30:11;;;;;;;1.30;0.90;;;22.10;41.10;;;;;;5054924;28;20024;-46
2021/12/13 12:32:44;;;;;;;1.42;0.82;;;22.10;41.10;;;;;;5030932;28;20129;-46
2021/12/13 12:35:23;;;;;;;2.97;0.90;;;22.10;41.10;;;;;;5039931;28;20352;-49
2021/12/13 12:38:16;;;;;;;0.80;0.63;;;22.10;41.10;;;;;;5037924;28;20326;-44
2021/12/13 12:41:13;;;;;;;0.80;0.70;;;22.10;41.10;;;;;;5056366;28;20021;-47
2021/12/13 12:43:52;;;;;;;1.55;0.95;;;22.10;41.10;;;;;;5034380;28;20124;-43
2021/12/13 12:46:19;;;;;;;1.58;0.95;;;22.10;41.80;;;;;;5036170;28;20036;-46
2021/12/13 12:48:47;;;;;;;0.95;0.80;;;22.10;41.10;;;;;;5036399;28;20030;-45
2021/12/13 12:51:26;;;;;;;1.10;0.80;;;22.10;41.20;;;;;;5039970;28;20090;-42
2021/12/13 12:54:13;;;;;;;1.10;0.80;;;22.10;41.10;;;;;;5053482;28;20632;-48
2021/12/13 12:56:48;;;;;;;1.05;0.68;;;22.10;41.10;;;;;;5036229;28;20065;-43
2021/12/13 12:59:21;;;;;;;0.88;0.70;;;22.10;41.10;;;;;;5041349;28;20033;-43
2021/12/13 13:01:58;;;;;;;1.30;0.88;;;22.00;41.00;;;;;;5043001;28;20062;-47
2021/12/13 13:04:31;;;;;;;0.63;0.60;;;22.10;41.10;;;;;;5043572;28;20109;-47
2021/12/13 13:07:10;;;;;;;1.10;0.60;;;22.00;41.10;;;;;;5045094;28;20064;-45
2021/12/13 13:09:50;;;;;;;0.60;0.60;;;22.10;41.20;;;;;;5042960;28;20068;-40
2021/12/13 13:12:30;;;;;;;0.80;0.80;;;22.10;41.20;;;;;;5042678;28;20402;-45
2021/12/13 13:15:03;;;;;;;0.77;0.70;;;22.10;41.30;;;;;;5042458;28;20425;-49
2021/12/13 13:17:32;;;;;;;1.33;0.70;;;22.00;41.30;;;;;;5043962;28;20021;-44
2021/12/13 13:20:05;;;;;;;0.60;0.50;;;22.10;41.40;;;;;;5046260;28;20130;-46
2021/12/13 13:22:35;;;;;;;0.63;0.60;;;22.20;41.40;;;;;;5044127;28;20025;-44
2021/12/13 13:25:22;;;;;;;1.13;0.70;;;22.10;41.30;;;;;;5044430;28;20020;-44
2021/12/13 13:27:49;;;;;;;1.08;0.75;;;22.20;41.30;;;;;;5044273;28;20039;-42
2021/12/13 13:30:37;;;;;;;0.95;0.80;;;22.20;41.30;;;;;;5043479;28;20017;-46
2021/12/13 13:33:04;;;;;;;0.70;0.60;;;22.30;41.20;;;;;;5044880;28;20033;-43
2021/12/13 13:35:30;;;;;;;0.73;0.70;;;22.30;41.20;;;;;;5044698;28;20028;-45
2021/12/13 13:37:56;;;;;;;0.90;0.70;;;22.40;41.20;;;;;;5046031;28;20017;-45
2021/12/13 13:40:26;;;;;;;0.52;0.50;;;22.40;41.10;;;;;;5046261;28;20036;-42
2021/12/13 13:42:59;;;;;;;0.80;0.70;;;22.50;41.00;;;;;;5045523;28;20215;-42
2021/12/13 13:45:30;;;;;;;1.00;0.80;;;22.50;40.90;;;;;;5045239;28;20116;-47
2021/12/13 13:47:59;;;;;;;0.63;0.60;;;22.60;40.90;;;;;;5043445;28;20437;-43